createdAt,value
2022-12-15T00:05:23.291Z,100
2022-12-15T00:11:23.280Z,100
2022-12-15T00:17:23.245Z,100
2022-12-15T00:23:23.292Z,100
2022-12-15T00:29:23.258Z,100
2022-12-15T00:35:23.252Z,100
2022-12-15T00:41:23.288Z,100
2022-12-15T00:47:23.268Z,100
2022-12-15T00:53:23.252Z,100
2022-12-15T00:59:23.319Z,100
2022-12-15T01:05:23.245Z,100
2022-12-15T01:11:23.240Z,100
2022-12-15T01:17:23.320Z,100
2022-12-15T01:23:23.255Z,100
2022-12-15T01:29:23.270Z,100
2022-12-15T01:35:23.379Z,100
2022-12-15T01:41:23.235Z,100
2022-12-15T01:47:23.249Z,100
2022-12-15T01:53:23.299Z,100
2022-12-15T01:59:23.248Z,100
2022-12-15T02:05:23.234Z,100
2022-12-15T02:11:23.289Z,100
2022-12-15T02:17:23.234Z,100
2022-12-15T02:23:23.232Z,100
2022-12-15T02:29:23.241Z,100
2022-12-15T02:35:23.226Z,100
2022-12-15T02:41:23.230Z,100
2022-12-15T02:47:23.286Z,100
2022-12-15T02:53:23.232Z,100
2022-12-15T02:59:23.219Z,100
2022-12-15T03:05:23.227Z,100
2022-12-15T03:11:23.215Z,100
2022-12-15T03:17:23.226Z,100
2022-12-15T03:23:23.235Z,100
2022-12-15T03:29:23.203Z,100
2022-12-15T03:35:23.204Z,100
2022-12-15T03:41:23.241Z,100
2022-12-15T03:47:23.218Z,100
2022-12-15T03:53:23.203Z,100
2022-12-15T03:59:23.251Z,100
2022-12-15T04:05:23.220Z,100
2022-12-15T04:11:23.202Z,100
2022-12-15T04:17:23.259Z,100
2022-12-15T04:23:23.212Z,100
2022-12-15T04:29:23.193Z,100
2022-12-15T04:35:23.228Z,100
2022-12-15T04:41:23.212Z,100
2022-12-15T04:47:23.182Z,100
2022-12-15T04:53:23.309Z,100
2022-12-15T04:59:23.232Z,100
2022-12-15T05:05:23.278Z,100
2022-12-15T05:11:23.220Z,100
2022-12-15T05:17:23.257Z,100
2022-12-15T05:23:23.208Z,100
2022-12-15T05:29:23.215Z,100
2022-12-15T05:35:23.192Z,100
2022-12-15T05:41:23.184Z,100
2022-12-15T05:47:23.224Z,100
2022-12-15T05:53:23.180Z,100
2022-12-15T05:59:23.192Z,100
2022-12-15T06:05:23.201Z,100
2022-12-15T06:11:23.174Z,100
2022-12-15T06:17:23.188Z,100
2022-12-15T06:23:23.227Z,100
2022-12-15T06:29:23.180Z,100
2022-12-15T06:35:23.212Z,100
2022-12-15T06:41:23.199Z,100
2022-12-15T06:47:23.165Z,100
2022-12-15T06:53:23.171Z,100
2022-12-15T06:59:23.217Z,100
2022-12-15T07:05:23.178Z,100
2022-12-15T07:11:23.171Z,100
2022-12-15T07:17:23.178Z,100
2022-12-15T07:23:45.971Z,100
2022-12-15T07:29:23.852Z,100
2022-12-15T07:35:23.196Z,100
2022-12-15T07:41:23.167Z,100
2022-12-15T07:47:23.205Z,100
2022-12-15T07:53:23.268Z,100
2022-12-15T07:59:23.162Z,100
2022-12-15T08:05:23.164Z,100
2022-12-15T08:11:23.185Z,100
2022-12-15T08:17:23.124Z,100
2022-12-15T08:23:23.145Z,100
2022-12-15T08:29:52.211Z,100
2022-12-15T08:35:54.673Z,100
2022-12-15T08:41:23.191Z,100
2022-12-15T08:47:23.161Z,100
2022-12-15T08:53:31.840Z,100
2022-12-15T08:59:23.149Z,100
2022-12-15T09:05:23.163Z,100
2022-12-15T09:11:23.142Z,100
2022-12-15T09:17:23.179Z,100
2022-12-15T09:23:23.179Z,100
2022-12-15T09:29:23.129Z,100
2022-12-15T09:35:23.142Z,100
2022-12-15T09:41:23.159Z,100
2022-12-15T09:47:23.117Z,100
2022-12-15T09:53:53.610Z,99.6
2022-12-15T09:59:23.164Z,97.4
2022-12-15T10:05:29.808Z,95.6
2022-12-15T10:11:23.104Z,94.3
2022-12-15T10:17:23.152Z,95.1
2022-12-15T10:23:23.149Z,93.4
2022-12-15T10:29:23.243Z,95.7
2022-12-15T10:35:23.272Z,93
2022-12-15T10:41:23.102Z,91.4
2022-12-15T10:47:23.117Z,93
2022-12-15T10:53:23.245Z,93.8
2022-12-15T10:59:23.106Z,93.9
2022-12-15T11:05:23.108Z,94.1
2022-12-15T11:11:26.146Z,92.7
2022-12-15T11:17:23.139Z,93.6
2022-12-15T11:23:23.134Z,92.4
2022-12-15T11:29:23.126Z,91.6
2022-12-15T11:35:23.130Z,93.7
2022-12-15T11:41:23.088Z,94.2
2022-12-15T11:47:23.099Z,94.9
2022-12-15T11:53:23.096Z,93.4
2022-12-15T11:59:23.112Z,93.3
2022-12-15T12:05:23.112Z,93.7
2022-12-15T12:11:23.112Z,92.5
2022-12-15T12:17:23.119Z,93
2022-12-15T12:23:23.122Z,93.2
2022-12-15T12:29:23.089Z,89.3
2022-12-15T12:35:31.311Z,87.3
2022-12-15T12:41:23.113Z,86
2022-12-15T12:47:23.103Z,85.6
2022-12-15T12:53:23.101Z,80.7
2022-12-15T12:59:23.102Z,82.2
2022-12-15T13:05:23.087Z,81.5
2022-12-15T13:11:23.070Z,81.3
2022-12-15T13:17:27.473Z,86.2
2022-12-15T13:23:23.100Z,87.9
2022-12-15T13:29:23.062Z,90.2
2022-12-15T13:35:23.108Z,88.9
2022-12-15T13:41:23.117Z,88.1
2022-12-15T13:47:23.072Z,90.4
2022-12-15T13:53:23.118Z,91.2
2022-12-15T13:59:23.086Z,93.8
2022-12-15T14:05:23.064Z,94.5
2022-12-15T14:11:51.476Z,94.8
2022-12-15T14:17:23.097Z,95.8
2022-12-15T14:23:23.050Z,95.3
2022-12-15T14:29:23.106Z,97.6
2022-12-15T14:35:23.063Z,98.5
2022-12-15T14:41:23.040Z,98.4
2022-12-15T14:47:23.146Z,97.4
2022-12-15T14:53:23.071Z,98.5
2022-12-15T14:59:23.052Z,97.4
2022-12-15T15:05:23.148Z,98.3
2022-12-15T15:11:23.085Z,100
2022-12-15T15:17:23.063Z,100
2022-12-15T15:23:23.068Z,100
2022-12-15T15:29:23.040Z,100
2022-12-15T15:35:23.044Z,100
2022-12-15T15:41:23.078Z,100
2022-12-15T15:47:23.051Z,100
2022-12-15T15:53:23.036Z,100
2022-12-15T15:59:23.130Z,100
2022-12-15T16:05:23.038Z,100
2022-12-15T16:11:23.025Z,100
2022-12-15T16:17:23.061Z,100
2022-12-15T16:23:23.267Z,100
2022-12-15T16:29:23.038Z,100
2022-12-15T16:35:23.102Z,100
2022-12-15T16:41:23.013Z,100
2022-12-15T16:47:23.014Z,100
2022-12-15T16:53:23.065Z,100
2022-12-15T16:59:33.040Z,100
2022-12-15T17:05:23.027Z,100
2022-12-15T17:11:23.089Z,100
2022-12-15T17:17:23.035Z,100
2022-12-15T17:23:23.023Z,100
2022-12-15T17:29:23.114Z,100
2022-12-15T17:35:23.140Z,100
2022-12-15T17:41:42.734Z,100
2022-12-15T17:47:23.017Z,100
2022-12-15T17:53:23.039Z,100
2022-12-15T17:59:23.036Z,100
2022-12-15T18:05:23.037Z,100
2022-12-15T18:11:23.075Z,100
2022-12-15T18:17:23.008Z,100
2022-12-15T18:23:23.055Z,100
2022-12-15T18:29:22.986Z,100
2022-12-15T18:35:23.021Z,100
2022-12-15T18:41:23.015Z,100
2022-12-15T18:47:23.260Z,100
2022-12-15T18:53:23.000Z,100
2022-12-15T18:59:23.031Z,100
2022-12-15T19:05:23.016Z,100
2022-12-15T19:11:23.033Z,100
2022-12-15T19:17:23.015Z,100
2022-12-15T19:23:22.997Z,100
2022-12-15T19:29:23.009Z,100
2022-12-15T19:35:23.038Z,100
2022-12-15T19:41:22.988Z,100
2022-12-15T19:47:22.983Z,100
2022-12-15T19:53:23.032Z,100
2022-12-15T19:59:22.993Z,100
2022-12-15T20:05:22.998Z,100
2022-12-15T20:11:22.994Z,100
2022-12-15T20:17:22.977Z,100
2022-12-15T20:23:23.056Z,100
2022-12-15T20:29:23.010Z,100
2022-12-15T20:35:22.987Z,100
2022-12-15T20:41:22.971Z,100
2022-12-15T20:47:23.019Z,100
2022-12-15T20:53:22.970Z,100
2022-12-15T20:59:22.978Z,100
2022-12-15T21:05:23.000Z,100
2022-12-15T21:11:22.964Z,100
2022-12-15T21:17:22.958Z,100
2022-12-15T21:23:23.058Z,100
2022-12-15T21:29:22.967Z,100
2022-12-15T21:35:26.142Z,100
2022-12-15T21:41:23.000Z,100
2022-12-15T21:47:22.929Z,100
2022-12-15T21:53:22.974Z,100
2022-12-15T21:59:23.055Z,100
2022-12-15T22:05:22.929Z,100
2022-12-15T22:11:23.158Z,100
2022-12-15T22:17:22.986Z,100
2022-12-15T22:23:22.937Z,100
2022-12-15T22:29:22.949Z,100
2022-12-15T22:35:22.958Z,100
2022-12-15T22:41:22.949Z,100
2022-12-15T22:47:22.918Z,100
2022-12-15T22:53:22.976Z,100
2022-12-15T22:59:22.929Z,100
2022-12-15T23:05:22.923Z,100
2022-12-15T23:11:22.975Z,100
2022-12-15T23:17:22.911Z,100
2022-12-15T23:23:22.928Z,100
2022-12-15T23:29:22.963Z,100
2022-12-15T23:35:22.951Z,100
2022-12-15T23:41:22.927Z,100
2022-12-15T23:47:22.947Z,100
2022-12-15T23:53:22.930Z,100
2022-12-15T23:59:22.888Z,100
